ExpreSS Rome — A8YC2 — position and weather

sailwx.info

Track history (hours):
 
Tides and Currents Weather Stations Pressure Air Temp Water Temp Dewpoint Dewpoint Depression Visibility Wind Speed Wind Dir Waves Ship Positions

ExpreSS Rome

Last reported at 2018-Aug-14 17:08 UTC. Time now 2018-Aug-14 23:41 UTC.
Position N 36°45' E 000°13'.

Length 349 m; draft 14.1 m.

Type: Ship (hazmat cat A). MMSI: 636015019.

Date/timePositionNaut miles runAvg speedWind from/ knotsBaromVisibWave heightAir tempDewpointWater temp
2018-Aug-14 17:08N 36°45' E 000°13'216.8
2018-Aug-14 17:00N 36°46' E 000°16'1317.0
2018-Aug-14 16:15N 36°47' E 000°32'516.9
2018-Aug-14 15:58N 36°48' E 000°37'816.7
2018-Aug-14 15:30N 36°49' E 000°47'18416.2
2018-Aug-14 04:09N 37°14' E 004°36'316.7
2018-Aug-14 04:00N 37°14' E 004°39'816.6
2018-Aug-14 03:30N 37°15' E 004°49'1116.7
2018-Aug-14 02:52N 37°17' E 005°02'616.4
2018-Aug-14 02:31N 37°17' E 005°10'816.4
2018-Aug-14 02:00N 37°18' E 005°20'816.7
2018-Aug-14 01:30N 37°20' E 005°30'3317.5
2018-Aug-13 23:38N 37°24' E 006°12'5217.2
2018-Aug-13 20:36N 37°31' E 007°17'216.8
2018-Aug-13 20:30N 37°31' E 007°19'2216.7
2018-Aug-13 19:10N 37°34' E 007°47'21116.5
2018-Aug-13 06:22N 37°05' E 012°09'1416.8
2018-Aug-13 05:32N 37°01' E 012°26'516.7
2018-Aug-13 05:13N 36°59' E 012°32'816.6
2018-Aug-13 04:46N 36°57' E 012°41'417.0
2018-Aug-13 04:30N 36°56' E 012°46'916.8
2018-Aug-13 03:59N 36°53' E 012°57'1816.8
2018-Aug-13 02:53N 36°47' E 013°19'616.9
2018-Aug-13 02:30N 36°45' E 013°26'816.9
2018-Aug-13 02:01N 36°42' E 013°36'4116.8
2018-Aug-12 23:36N 36°29' E 014°24'116.4
2018-Aug-12 23:30N 36°29' E 014°26'816.3
2018-Aug-12 23:00N 36°26' E 014°36'816.1
2018-Aug-12 22:30N 36°24' E 014°45'816.1
2018-Aug-12 22:00N 36°23' E 014°55'816.0
2018-Aug-12 21:30N 36°21' E 015°05'  
2018-Aug-10 15:22N 31°25' E 032°24'1711.7
2018-Aug-10 13:54N 31°08' E 032°19'6 9.2
2018-Aug-10 13:16N 31°02' E 032°19'  
Track history (hours):
 
Tides and Currents Weather Stations Pressure Air Temp Water Temp Dewpoint Dewpoint Depression Visibility Wind Speed Wind Dir Waves Ship Positions

ExpreSS Rome

Last reported at 2018-Aug-14 17:08 UTC. Time now 2018-Aug-14 23:41 UTC.
Position N 36°45' E 000°13'.

Length 349 m; draft 14.1 m.

Type: Ship (hazmat cat A). MMSI: 636015019.

Date/timePositionNaut miles runAvg speedWind from/ knotsBaromVisibWave heightAir tempDewpointWater temp
2018-Aug-14 17:08N 36°45' E 000°13'216.8
2018-Aug-14 17:00N 36°46' E 000°16'1317.0
2018-Aug-14 16:15N 36°47' E 000°32'516.9
2018-Aug-14 15:58N 36°48' E 000°37'816.7
2018-Aug-14 15:30N 36°49' E 000°47'18416.2
2018-Aug-14 04:09N 37°14' E 004°36'316.7
2018-Aug-14 04:00N 37°14' E 004°39'816.6
2018-Aug-14 03:30N 37°15' E 004°49'1116.7
2018-Aug-14 02:52N 37°17' E 005°02'616.4
2018-Aug-14 02:31N 37°17' E 005°10'816.4
2018-Aug-14 02:00N 37°18' E 005°20'816.7
2018-Aug-14 01:30N 37°20' E 005°30'3317.5
2018-Aug-13 23:38N 37°24' E 006°12'5217.2
2018-Aug-13 20:36N 37°31' E 007°17'216.8
2018-Aug-13 20:30N 37°31' E 007°19'2216.7
2018-Aug-13 19:10N 37°34' E 007°47'21116.5
2018-Aug-13 06:22N 37°05' E 012°09'1416.8
2018-Aug-13 05:32N 37°01' E 012°26'516.7
2018-Aug-13 05:13N 36°59' E 012°32'816.6
2018-Aug-13 04:46N 36°57' E 012°41'417.0
2018-Aug-13 04:30N 36°56' E 012°46'916.8
2018-Aug-13 03:59N 36°53' E 012°57'1816.8
2018-Aug-13 02:53N 36°47' E 013°19'616.9
2018-Aug-13 02:30N 36°45' E 013°26'816.9
2018-Aug-13 02:01N 36°42' E 013°36'4116.8
2018-Aug-12 23:36N 36°29' E 014°24'116.4
2018-Aug-12 23:30N 36°29' E 014°26'816.3
2018-Aug-12 23:00N 36°26' E 014°36'816.1
2018-Aug-12 22:30N 36°24' E 014°45'816.1
2018-Aug-12 22:00N 36°23' E 014°55'816.0
2018-Aug-12 21:30N 36°21' E 015°05'  
2018-Aug-10 15:22N 31°25' E 032°24'1711.7
2018-Aug-10 13:54N 31°08' E 032°19'6 9.2
2018-Aug-10 13:16N 31°02' E 032°19'  

Dump ship's entire track history